Time;durP1;ratioP1;P1;durP2;ratioP2;P2;SDS_P1;SDS_P2;PMS_P1;PMS_P2;Temp;Humidity;BMP_temperature;BMP_pressure;BME280_temperature;BME280_humidity;BME280_pressure;Samples;Min_cycle;Max_cycle;Signal;HPM_P1;HPM_P2
2022/03/02 00:00:24;;;;;;;14.00;7.87;;;3.40;99.90;;;;;;5025477;28;20678;-71
2022/03/02 00:02:51;;;;;;;18.20;7.43;;;3.20;99.90;;;;;;5026892;28;20207;-70
2022/03/02 00:05:17;;;;;;;14.37;6.83;;;3.10;99.90;;;;;;5027365;28;20212;-70
2022/03/02 00:07:44;;;;;;;14.23;7.73;;;3.00;99.90;;;;;;5026149;28;20217;-70
2022/03/02 00:10:11;;;;;;;15.33;7.80;;;3.10;99.90;;;;;;5026336;28;21620;-70
2022/03/02 00:12:37;;;;;;;15.30;8.07;;;3.20;99.90;;;;;;5028518;28;20195;-70
2022/03/02 00:15:05;;;;;;;14.00;7.17;;;3.10;99.90;;;;;;5027232;28;20223;-71
2022/03/02 00:17:32;;;;;;;13.50;7.37;;;2.80;99.90;;;;;;5021931;28;20199;-70
2022/03/02 00:19:59;;;;;;;17.40;7.83;;;2.70;99.90;;;;;;5027503;28;20201;-70
2022/03/02 00:22:26;;;;;;;14.37;8.00;;;2.70;99.90;;;;;;5027870;28;20214;-70
2022/03/02 00:24:52;;;;;;;16.20;7.60;;;2.70;99.90;;;;;;5023911;28;20215;-71
2022/03/02 00:27:23;;;;;;;14.73;7.63;;;2.70;99.90;;;;;;5028452;28;20206;-74
2022/03/02 00:29:50;;;;;;;13.57;7.60;;;2.80;99.90;;;;;;5027230;28;20195;-73
2022/03/02 00:32:17;;;;;;;13.23;7.30;;;2.70;99.90;;;;;;5025567;28;21593;-72
2022/03/02 00:34:44;;;;;;;12.50;7.03;;;2.60;99.90;;;;;;5025924;28;20198;-72
2022/03/02 00:37:12;;;;;;;12.50;7.87;;;2.60;99.90;;;;;;5014888;28;20195;-76
2022/03/02 00:39:40;;;;;;;15.67;7.53;;;2.50;99.90;;;;;;5027800;28;20215;-75
2022/03/02 00:42:06;;;;;;;12.50;7.03;;;2.50;99.90;;;;;;5028660;28;20264;-76
2022/03/02 00:44:34;;;;;;;12.47;6.57;;;2.70;99.90;;;;;;5021747;28;20556;-72
2022/03/02 00:47:02;;;;;;;12.60;6.97;;;2.70;99.90;;;;;;5043528;28;20256;-70
2022/03/02 00:49:32;;;;;;;12.97;6.67;;;2.50;99.90;;;;;;5027574;28;20211;-70
2022/03/02 00:51:59;;;;;;;10.73;6.57;;;2.40;99.90;;;;;;5024223;28;20206;-70
2022/03/02 00:54:25;;;;;;;12.70;6.97;;;2.40;99.90;;;;;;5027104;28;20231;-70
2022/03/02 00:56:52;;;;;;;11.50;6.57;;;2.40;99.90;;;;;;5028266;28;20694;-70
2022/03/02 00:59:19;;;;;;;13.00;7.17;;;2.20;99.90;;;;;;5027709;28;20237;-70
2022/03/02 01:01:45;;;;;;;13.40;6.57;;;2.10;99.90;;;;;;5025165;28;20197;-70
2022/03/02 01:04:12;;;;;;;14.73;7.33;;;2.10;99.90;;;;;;5019294;28;20197;-70
2022/03/02 01:06:39;;;;;;;14.10;7.07;;;1.90;99.90;;;;;;5026273;28;20210;-72
2022/03/02 01:09:05;;;;;;;11.63;6.23;;;2.00;99.90;;;;;;5028247;28;20199;-75
2022/03/02 01:11:32;;;;;;;11.47;6.77;;;2.20;99.90;;;;;;5028355;28;20607;-71
2022/03/02 01:13:59;;;;;;;13.17;6.27;;;2.30;99.90;;;;;;5019570;28;20197;-73
2022/03/02 01:16:26;;;;;;;15.77;6.30;;;2.20;99.90;;;;;;5026284;28;20216;-76
2022/03/02 01:18:53;;;;;;;11.93;5.83;;;2.10;99.90;;;;;;5027202;28;20582;-76
2022/03/02 01:21:21;;;;;;;12.60;6.37;;;2.10;99.90;;;;;;5019292;28;20200;-74
2022/03/02 01:23:48;;;;;;;14.47;6.43;;;2.10;99.90;;;;;;5026525;28;20599;-72
2022/03/02 01:26:14;;;;;;;12.60;6.40;;;2.20;99.90;;;;;;5027468;28;20219;-71
2022/03/02 01:28:41;;;;;;;12.10;6.30;;;2.20;99.90;;;;;;5027963;28;20204;-74
2022/03/02 01:31:08;;;;;;;11.87;6.20;;;2.00;99.90;;;;;;5025408;28;20212;-71
2022/03/02 01:33:35;;;;;;;10.73;5.63;;;1.90;99.90;;;;;;5022458;28;20206;-72
2022/03/02 01:36:01;;;;;;;10.40;5.70;;;1.80;99.90;;;;;;5026103;28;20229;-74
2022/03/02 01:38:28;;;;;;;10.50;6.00;;;1.70;99.90;;;;;;5026645;28;20221;-72
2022/03/02 01:40:55;;;;;;;12.03;5.97;;;1.70;99.90;;;;;;5023129;28;20208;-72
2022/03/02 01:43:21;;;;;;;10.47;5.57;;;1.70;99.90;;;;;;5025381;28;20205;-73
2022/03/02 01:45:48;;;;;;;10.77;5.90;;;1.70;99.90;;;;;;5020193;28;20216;-74
2022/03/02 01:48:15;;;;;;;10.23;5.60;;;1.80;99.90;;;;;;5022703;28;20202;-72
2022/03/02 01:50:42;;;;;;;9.50;5.80;;;1.70;99.90;;;;;;5024790;28;20212;-72
2022/03/02 01:53:08;;;;;;;9.23;5.33;;;1.60;99.90;;;;;;5028542;28;20231;-72
2022/03/02 01:55:35;;;;;;;12.07;6.47;;;1.70;99.90;;;;;;5027294;28;20213;-73
2022/03/02 01:58:03;;;;;;;10.73;5.87;;;1.90;99.90;;;;;;5023250;28;20581;-72
2022/03/02 02:00:30;;;;;;;10.80;6.30;;;1.90;99.90;;;;;;5025268;28;20198;-74
2022/03/02 02:02:57;;;;;;;11.97;6.03;;;1.80;99.90;;;;;;5027213;28;20545;-73
2022/03/02 02:05:24;;;;;;;12.83;6.00;;;1.70;99.90;;;;;;5025201;28;20761;-72
2022/03/02 02:07:50;;;;;;;12.50;6.57;;;1.60;99.90;;;;;;5022866;28;20207;-72
2022/03/02 02:10:17;;;;;;;10.97;6.43;;;1.50;99.90;;;;;;5027575;28;20197;-71
2022/03/02 02:12:44;;;;;;;11.03;6.07;;;1.80;99.90;;;;;;5026923;28;20204;-72
2022/03/02 02:15:11;;;;;;;10.03;5.90;;;1.80;99.90;;;;;;5024634;28;20250;-71
2022/03/02 02:17:40;;;;;;;10.13;6.10;;;1.70;99.90;;;;;;5023001;28;20192;-72
2022/03/02 02:20:09;;;;;;;9.90;5.33;;;1.70;99.90;;;;;;5026427;28;20230;-72
2022/03/02 02:22:41;;;;;;;10.67;5.77;;;1.70;99.90;;;;;;5025115;28;20193;-71
2022/03/02 02:25:07;;;;;;;8.97;5.33;;;1.60;99.90;;;;;;5016740;28;20219;-71
2022/03/02 02:27:34;;;;;;;9.83;5.10;;;1.60;99.90;;;;;;5026417;28;20335;-71
2022/03/02 02:30:03;;;;;;;9.57;5.70;;;1.50;99.90;;;;;;5026392;28;20231;-75
2022/03/02 02:32:30;;;;;;;10.03;5.93;;;1.40;99.90;;;;;;5025194;28;20205;-72
2022/03/02 02:34:57;;;;;;;11.07;5.63;;;1.40;99.90;;;;;;5021501;28;20225;-71
2022/03/02 02:37:28;;;;;;;10.30;6.20;;;1.30;99.90;;;;;;5025323;28;20200;-72
2022/03/02 02:40:01;;;;;;;8.43;5.30;;;1.20;99.90;;;;;;5026825;28;20230;-71
2022/03/02 02:42:27;;;;;;;9.27;5.57;;;1.00;99.90;;;;;;5031424;28;20237;-72
2022/03/02 02:44:55;;;;;;;9.90;5.73;;;1.10;99.90;;;;;;5023969;28;20230;-74
2022/03/02 02:47:22;;;;;;;10.10;5.77;;;1.00;99.90;;;;;;5028980;28;20207;-71
2022/03/02 02:49:49;;;;;;;8.93;5.17;;;0.90;99.90;;;;;;5030206;28;20203;-72
2022/03/02 02:52:16;;;;;;;10.93;5.70;;;0.80;99.90;;;;;;5030756;28;20200;-72
2022/03/02 02:54:43;;;;;;;10.90;5.60;;;0.70;99.90;;;;;;5027515;28;20208;-73
2022/03/02 02:57:10;;;;;;;12.90;6.10;;;0.70;99.90;;;;;;5029442;28;20205;-71
2022/03/02 02:59:37;;;;;;;9.90;5.20;;;1.00;99.90;;;;;;5028336;28;20475;-75
2022/03/02 03:02:04;;;;;;;10.57;5.57;;;1.00;99.90;;;;;;5029279;28;20206;-71
2022/03/02 03:04:31;;;;;;;11.33;5.67;;;1.00;99.90;;;;;;5026600;28;20241;-71
2022/03/02 03:06:58;;;;;;;10.13;5.27;;;1.10;99.90;;;;;;5029580;28;20673;-74
2022/03/02 03:09:25;;;;;;;11.20;5.83;;;1.10;99.90;;;;;;5029123;28;20213;-72
2022/03/02 03:11:51;;;;;;;10.27;5.60;;;0.90;99.90;;;;;;5021817;28;20196;-72
2022/03/02 03:14:18;;;;;;;13.37;6.07;;;0.80;99.90;;;;;;5024544;28;20211;-73
2022/03/02 03:16:45;;;;;;;10.37;6.20;;;0.90;99.90;;;;;;5029636;28;20232;-72
2022/03/02 03:19:11;;;;;;;11.70;5.97;;;0.90;99.90;;;;;;5024336;28;20606;-71
2022/03/02 03:21:38;;;;;;;10.77;6.00;;;1.00;99.90;;;;;;5028690;28;20188;-72
2022/03/02 03:24:05;;;;;;;9.80;5.10;;;0.90;99.90;;;;;;5027363;28;20192;-75
2022/03/02 03:26:32;;;;;;;12.23;5.60;;;0.90;99.90;;;;;;5030562;28;20223;-75
2022/03/02 03:28:58;;;;;;;8.07;4.80;;;1.00;99.90;;;;;;5026582;28;20204;-70
2022/03/02 03:31:25;;;;;;;9.20;5.30;;;1.00;99.90;;;;;;5028676;28;20203;-70
2022/03/02 03:33:52;;;;;;;9.77;5.30;;;0.90;99.90;;;;;;5028556;28;20192;-70
2022/03/02 03:36:19;;;;;;;9.60;5.53;;;1.00;99.90;;;;;;5024686;28;20293;-70
2022/03/02 03:38:45;;;;;;;8.97;4.80;;;1.00;99.90;;;;;;5030138;28;20238;-70
2022/03/02 03:41:12;;;;;;;9.90;5.37;;;1.10;99.90;;;;;;5030171;28;20201;-70
2022/03/02 03:43:39;;;;;;;8.77;5.30;;;1.10;99.90;;;;;;5028656;28;20644;-70
2022/03/02 03:46:06;;;;;;;9.03;5.17;;;1.00;99.90;;;;;;5023815;28;20214;-70
2022/03/02 03:48:32;;;;;;;9.23;5.63;;;1.10;99.90;;;;;;5027839;28;20447;-70
2022/03/02 03:50:59;;;;;;;11.80;5.57;;;0.90;99.90;;;;;;5028310;28;20588;-72
2022/03/02 03:53:26;;;;;;;10.97;5.97;;;0.90;99.90;;;;;;5029610;28;20202;-73
2022/03/02 03:55:53;;;;;;;9.77;5.43;;;1.10;99.90;;;;;;5022580;28;20685;-71
2022/03/02 03:58:19;;;;;;;10.43;5.43;;;1.30;99.90;;;;;;5027644;28;20549;-71
2022/03/02 04:00:46;;;;;;;11.27;5.80;;;1.30;99.90;;;;;;5026843;28;20709;-71
2022/03/02 04:03:13;;;;;;;10.43;5.73;;;1.20;99.90;;;;;;5031417;28;20231;-72
2022/03/02 04:05:40;;;;;;;8.87;4.90;;;1.10;99.90;;;;;;5028987;28;20224;-75
2022/03/02 04:08:08;;;;;;;10.20;5.43;;;1.00;99.90;;;;;;5030152;28;20561;-72
2022/03/02 04:10:35;;;;;;;8.57;5.33;;;1.00;99.90;;;;;;5027217;28;20204;-72
2022/03/02 04:13:02;;;;;;;10.23;5.57;;;0.90;99.90;;;;;;5028888;28;20581;-71
2022/03/02 04:15:29;;;;;;;11.10;5.67;;;0.90;99.90;;;;;;5026077;28;20220;-75
2022/03/02 04:17:55;;;;;;;11.03;6.43;;;0.90;99.90;;;;;;5027574;28;20652;-72
2022/03/02 04:20:22;;;;;;;13.33;6.37;;;0.90;99.90;;;;;;5023490;28;20235;-71
2022/03/02 04:22:49;;;;;;;11.17;6.27;;;1.00;99.90;;;;;;5021735;28;20193;-74
2022/03/02 04:25:15;;;;;;;13.23;6.77;;;1.20;99.90;;;;;;5028402;28;20216;-73
2022/03/02 04:27:42;;;;;;;14.60;7.07;;;1.30;99.90;;;;;;5025541;28;20189;-71
2022/03/02 04:30:10;;;;;;;12.47;6.37;;;1.40;99.90;;;;;;5028942;28;20208;-72
2022/03/02 04:32:37;;;;;;;11.33;5.93;;;1.50;99.90;;;;;;5024603;28;20199;-72
2022/03/02 04:35:06;;;;;;;10.50;6.00;;;1.40;99.90;;;;;;5026755;28;20217;-73
2022/03/02 04:37:33;;;;;;;10.97;6.03;;;1.40;99.90;;;;;;5023664;28;20223;-72
2022/03/02 04:40:00;;;;;;;12.43;6.13;;;1.40;99.90;;;;;;5029704;28;20223;-71
2022/03/02 04:42:27;;;;;;;13.50;7.00;;;1.40;99.90;;;;;;5029220;28;20196;-70
2022/03/02 04:44:53;;;;;;;15.13;6.90;;;1.50;99.90;;;;;;5027620;28;20690;-70
2022/03/02 04:47:20;;;;;;;13.87;6.40;;;1.70;99.90;;;;;;5025899;28;20219;-70
2022/03/02 04:49:46;;;;;;;11.93;6.60;;;1.70;99.90;;;;;;5028199;28;20210;-70
2022/03/02 04:52:13;;;;;;;12.13;6.37;;;1.70;99.90;;;;;;5028930;28;20977;-70
2022/03/02 04:57:25;;;;;;;17.80;7.50;;;1.60;99.90;;;;;;5030120;28;20205;-70
2022/03/02 04:59:52;;;;;;;12.17;6.87;;;1.80;99.90;;;;;;5025554;28;20216;-70
2022/03/02 05:02:19;;;;;;;12.73;7.20;;;2.00;99.90;;;;;;5026280;28;20200;-71
2022/03/02 05:04:46;;;;;;;13.77;7.00;;;2.00;99.90;;;;;;5020566;28;20265;-70
2022/03/02 05:07:13;;;;;;;11.03;7.10;;;1.80;99.90;;;;;;5026673;28;20196;-70
2022/03/02 05:09:40;;;;;;;13.00;6.80;;;1.90;99.90;;;;;;5024413;28;20199;-70
2022/03/02 05:12:07;;;;;;;14.57;7.00;;;1.80;99.90;;;;;;5026967;28;20201;-70
2022/03/02 05:14:34;;;;;;;13.50;7.20;;;1.80;99.90;;;;;;5027278;28;20646;-70
2022/03/02 05:17:01;;;;;;;11.73;7.00;;;1.90;99.90;;;;;;5026143;28;20312;-70
2022/03/02 05:19:28;;;;;;;14.97;6.70;;;2.10;99.90;;;;;;5025998;28;20231;-70
2022/03/02 05:21:55;;;;;;;15.40;7.03;;;2.00;99.90;;;;;;5023752;28;20196;-70
2022/03/02 05:24:21;;;;;;;12.50;6.60;;;2.10;99.90;;;;;;5028969;28;20197;-74
2022/03/02 05:26:48;;;;;;;12.87;6.70;;;2.10;99.90;;;;;;5028778;28;20215;-72
2022/03/02 05:29:15;;;;;;;14.03;6.57;;;2.10;99.90;;;;;;5024707;28;20200;-71
2022/03/02 05:31:41;;;;;;;12.20;6.13;;;2.00;99.90;;;;;;5022739;28;20212;-70
2022/03/02 05:34:08;;;;;;;12.13;6.60;;;1.90;99.90;;;;;;5026145;28;20497;-70
2022/03/02 05:36:35;;;;;;;14.57;7.10;;;1.90;99.90;;;;;;5025092;28;20223;-70
2022/03/02 05:39:02;;;;;;;13.20;6.70;;;2.10;99.90;;;;;;5023980;28;20208;-70
2022/03/02 05:41:28;;;;;;;12.00;6.77;;;2.10;99.90;;;;;;5023388;28;20192;-70
2022/03/02 05:43:55;;;;;;;13.07;6.97;;;2.10;99.90;;;;;;5022703;28;20615;-69
2022/03/02 05:46:22;;;;;;;15.97;6.97;;;1.90;99.90;;;;;;5023359;28;20274;-70
2022/03/02 05:48:52;;;;;;;14.90;6.83;;;2.20;99.90;;;;;;5025944;28;20243;-70
2022/03/02 05:51:19;;;;;;;10.30;6.40;;;2.30;99.90;;;;;;5026513;28;20671;-70
2022/03/02 05:53:46;;;;;;;13.17;7.40;;;2.30;99.90;;;;;;5024702;28;20579;-70
2022/03/02 05:56:13;;;;;;;12.50;7.37;;;2.30;99.90;;;;;;5026601;28;20595;-70
2022/03/02 05:58:39;;;;;;;12.93;7.07;;;2.40;99.90;;;;;;5025453;28;20200;-70
2022/03/02 06:01:06;;;;;;;14.43;7.80;;;2.40;99.90;;;;;;5022950;28;20228;-70
2022/03/02 06:03:33;;;;;;;11.80;7.00;;;2.30;99.90;;;;;;5025182;28;20654;-70
2022/03/02 06:06:00;;;;;;;11.63;6.57;;;2.20;99.90;;;;;;5022478;28;20304;-68
2022/03/02 06:08:27;;;;;;;11.63;7.13;;;2.30;99.90;;;;;;5026687;28;20204;-69
2022/03/02 06:10:54;;;;;;;12.77;7.10;;;2.40;99.90;;;;;;5025553;28;20397;-68
2022/03/02 06:13:20;;;;;;;12.00;6.73;;;2.60;99.90;;;;;;5025899;28;20229;-69
2022/03/02 06:15:47;;;;;;;14.63;8.10;;;2.50;99.90;;;;;;5020866;28;20225;-68
2022/03/02 06:18:14;;;;;;;16.47;7.93;;;2.50;99.90;;;;;;5022274;28;20203;-68
2022/03/02 06:20:42;;;;;;;15.03;7.30;;;2.50;99.90;;;;;;5023618;28;20231;-68
2022/03/02 06:23:09;;;;;;;13.83;6.67;;;2.60;99.90;;;;;;5024361;28;20199;-68
2022/03/02 06:25:36;;;;;;;13.10;6.73;;;2.80;99.90;;;;;;5023081;28;20217;-67
2022/03/02 06:28:03;;;;;;;14.77;7.10;;;2.80;99.90;;;;;;5017933;28;20666;-68
2022/03/02 06:30:30;;;;;;;13.07;7.30;;;2.80;99.90;;;;;;5022620;28;20200;-68
2022/03/02 06:32:58;;;;;;;14.40;7.60;;;2.90;99.90;;;;;;5025600;28;20215;-68
2022/03/02 06:35:25;;;;;;;14.63;7.00;;;2.80;99.90;;;;;;5023900;28;20222;-70
2022/03/02 06:37:51;;;;;;;13.70;7.40;;;2.70;99.90;;;;;;5022028;28;20213;-68
2022/03/02 06:40:18;;;;;;;15.63;7.37;;;2.70;99.90;;;;;;5020216;28;20219;-67
2022/03/02 06:42:59;;;;;;;15.37;7.60;;;2.60;99.90;;;;;;5023191;28;20658;-67
2022/03/02 06:45:36;;;;;;;19.43;7.77;;;2.70;99.90;;;;;;5024619;28;20302;-67
2022/03/02 06:48:12;;;;;;;15.13;8.63;;;2.80;99.90;;;;;;5024736;28;20198;-67
2022/03/02 06:50:43;;;;;;;17.40;7.50;;;2.80;99.90;;;;;;5024559;28;20199;-67
2022/03/02 06:53:12;;;;;;;14.50;7.97;;;2.80;99.90;;;;;;5026880;28;20219;-67
2022/03/02 06:55:44;;;;;;;12.70;7.43;;;3.00;99.90;;;;;;5023929;28;20805;-67
2022/03/02 06:58:13;;;;;;;13.20;7.20;;;3.00;99.90;;;;;;5025505;28;20278;-66
2022/03/02 07:00:43;;;;;;;13.83;7.93;;;3.10;99.90;;;;;;5009312;28;20596;-66
2022/03/02 07:03:11;;;;;;;13.87;7.47;;;3.20;99.90;;;;;;5013205;28;20191;-67
2022/03/02 07:05:39;;;;;;;14.80;7.17;;;3.30;99.90;;;;;;5013093;28;20215;-66
2022/03/02 07:08:08;;;;;;;14.00;7.20;;;3.40;99.90;;;;;;5015394;28;20191;-66
2022/03/02 07:10:36;;;;;;;15.00;8.00;;;3.60;99.90;;;;;;5016863;28;20294;-67
2022/03/02 07:13:05;;;;;;;16.00;7.97;;;3.70;99.90;;;;;;5017182;28;20666;-67
2022/03/02 07:15:34;;;;;;;14.73;8.13;;;3.90;99.90;;;;;;5017139;28;20238;-67
2022/03/02 07:18:02;;;;;;;16.23;8.40;;;4.10;99.90;;;;;;5017031;28;20196;-67
2022/03/02 07:20:30;;;;;;;16.20;8.70;;;4.20;99.90;;;;;;5016451;28;20233;-66
2022/03/02 07:22:59;;;;;;;14.10;8.60;;;4.30;99.90;;;;;;5016195;28;20202;-69
2022/03/02 07:25:29;;;;;;;14.23;8.80;;;4.60;99.90;;;;;;5016516;28;20309;-69
2022/03/02 07:27:57;;;;;;;20.67;8.23;;;4.70;99.90;;;;;;5019465;28;20317;-69
2022/03/02 07:30:25;;;;;;;20.33;9.13;;;4.60;99.90;;;;;;5020407;28;20200;-74
2022/03/02 07:32:59;;;;;;;18.50;9.33;;;4.30;99.90;;;;;;5020536;28;20204;-71
2022/03/02 07:35:28;;;;;;;18.90;8.87;;;4.10;99.90;;;;;;5021047;28;20607;-71
2022/03/02 07:37:56;;;;;;;17.03;8.70;;;4.10;99.90;;;;;;5020279;28;20203;-71
2022/03/02 07:40:23;;;;;;;15.30;8.30;;;4.20;99.90;;;;;;5020015;28;20603;-72
2022/03/02 07:42:50;;;;;;;17.20;8.83;;;4.30;99.90;;;;;;5021044;28;20206;-71
2022/03/02 07:45:18;;;;;;;14.80;8.33;;;4.60;99.90;;;;;;5018138;28;20235;-73
2022/03/02 07:47:46;;;;;;;12.40;7.57;;;4.70;99.90;;;;;;5019577;28;20212;-71
2022/03/02 07:50:13;;;;;;;14.27;8.93;;;5.00;99.90;;;;;;5018803;28;20206;-69
2022/03/02 07:52:46;;;;;;;19.73;8.67;;;5.20;99.90;;;;;;5032967;28;20210;-69
2022/03/02 07:55:15;;;;;;;19.50;8.70;;;5.40;99.90;;;;;;5018743;28;20264;-69
2022/03/02 07:57:42;;;;;;;16.60;9.10;;;5.50;99.90;;;;;;5020119;28;20195;-70
2022/03/02 08:00:11;;;;;;;15.90;8.40;;;5.70;99.90;;;;;;5018240;28;20209;-69
2022/03/02 08:02:40;;;;;;;20.73;9.97;;;5.80;99.90;;;;;;5017649;28;20200;-69
2022/03/02 08:05:08;;;;;;;21.07;9.13;;;5.80;99.90;;;;;;5020414;28;20321;-69
2022/03/02 08:07:35;;;;;;;18.37;8.67;;;6.00;99.90;;;;;;5015254;28;20203;-69
2022/03/02 08:10:03;;;;;;;25.03;9.03;;;6.10;99.90;;;;;;5019806;28;20226;-69
2022/03/02 08:12:30;;;;;;;14.07;8.20;;;5.90;99.90;;;;;;5020522;28;20211;-70
2022/03/02 08:14:57;;;;;;;15.53;6.47;;;6.00;99.90;;;;;;5019864;28;20299;-69
2022/03/02 08:17:24;;;;;;;10.20;5.73;;;6.20;99.90;;;;;;5017470;28;20207;-69
2022/03/02 08:19:51;;;;;;;10.57;5.83;;;6.30;99.90;;;;;;5018706;28;20701;-69
2022/03/02 08:22:20;;;;;;;15.03;6.80;;;6.60;99.90;;;;;;5020461;28;20200;-69
2022/03/02 08:24:54;;;;;;;12.83;5.50;;;6.70;99.90;;;;;;5019718;28;20228;-69
2022/03/02 08:27:21;;;;;;;13.03;5.27;;;6.80;99.90;;;;;;5020143;28;20199;-69
2022/03/02 08:29:56;;;;;;;10.60;5.50;;;6.80;99.90;;;;;;5019078;28;20229;-66
2022/03/02 08:32:24;;;;;;;14.27;5.60;;;6.70;99.90;;;;;;5016770;28;20213;-67
2022/03/02 08:34:51;;;;;;;12.07;5.57;;;6.70;99.90;;;;;;5017129;28;20710;-70
2022/03/02 08:37:19;;;;;;;10.47;5.70;;;6.80;99.90;;;;;;5023343;28;20200;-70
2022/03/02 08:39:47;;;;;;;13.50;6.07;;;6.90;99.90;;;;;;5023445;28;20206;-70
2022/03/02 08:42:14;;;;;;;12.33;6.10;;;7.00;99.90;;;;;;5021563;28;20195;-70
2022/03/02 08:44:44;;;;;;;13.23;5.57;;;7.10;99.90;;;;;;5021967;28;20195;-70
2022/03/02 08:47:11;;;;;;;11.87;5.20;;;7.30;99.90;;;;;;5024361;28;20214;-70
2022/03/02 08:49:38;;;;;;;10.27;5.57;;;7.40;99.90;;;;;;5025057;28;20205;-69
2022/03/02 08:52:06;;;;;;;11.20;5.90;;;7.50;99.90;;;;;;5024175;28;20207;-70
2022/03/02 08:54:43;;;;;;;9.40;5.27;;;7.30;99.90;;;;;;5021082;28;20195;-70
2022/03/02 08:57:10;;;;;;;12.77;6.00;;;7.10;99.90;;;;;;5021113;28;20215;-70
2022/03/02 08:59:40;;;;;;;12.30;5.63;;;6.90;99.90;;;;;;5020251;28;20239;-70
2022/03/02 09:02:08;;;;;;;9.17;5.20;;;6.90;99.90;;;;;;5023576;28;20196;-70
2022/03/02 09:04:37;;;;;;;11.80;5.37;;;6.90;99.90;;;;;;5022607;28;20192;-70
2022/03/02 09:07:05;;;;;;;15.30;5.77;;;6.90;99.90;;;;;;5024020;28;20211;-70
2022/03/02 09:09:32;;;;;;;13.23;5.93;;;6.90;99.90;;;;;;5023475;28;21494;-70
2022/03/02 09:11:59;;;;;;;11.63;5.43;;;7.00;99.90;;;;;;5022153;28;20202;-70
2022/03/02 09:14:26;;;;;;;15.90;6.10;;;7.20;99.90;;;;;;5022593;28;20226;-70
2022/03/02 09:16:53;;;;;;;15.47;6.10;;;7.30;99.90;;;;;;5021480;28;20207;-70
2022/03/02 09:19:20;;;;;;;14.00;6.20;;;7.40;99.90;;;;;;5020255;28;20314;-70
2022/03/02 09:21:47;;;;;;;9.63;5.40;;;7.30;99.90;;;;;;5014992;28;20230;-70
2022/03/02 09:24:14;;;;;;;11.70;5.83;;;7.40;99.90;;;;;;5015517;28;20246;-70
2022/03/02 09:26:42;;;;;;;9.57;5.67;;;7.40;99.90;;;;;;5019239;28;20224;-70
2022/03/02 09:29:08;;;;;;;10.70;5.63;;;7.30;99.90;;;;;;5021186;28;20227;-70
2022/03/02 09:31:36;;;;;;;13.40;5.97;;;7.40;99.90;;;;;;5018870;28;20199;-70
2022/03/02 09:34:08;;;;;;;10.27;5.23;;;7.40;99.90;;;;;;5018819;28;20247;-70
2022/03/02 09:36:37;;;;;;;14.90;5.87;;;7.50;99.90;;;;;;5022553;28;20252;-70
2022/03/02 09:39:07;;;;;;;12.33;6.10;;;7.60;99.90;;;;;;5020413;28;20207;-70
2022/03/02 09:41:54;;;;;;;11.93;6.63;;;7.70;99.90;;;;;;5022488;28;20703;-70
2022/03/02 09:44:25;;;;;;;12.50;5.87;;;7.90;99.90;;;;;;5017084;28;20207;-70
2022/03/02 09:46:56;;;;;;;11.83;6.17;;;8.00;99.90;;;;;;5033013;28;20253;-70
2022/03/02 09:49:29;;;;;;;19.90;6.47;;;7.90;99.90;;;;;;5015087;28;20195;-70
2022/03/02 09:52:08;;;;;;;12.67;6.10;;;7.80;99.90;;;;;;5021594;28;20197;-70
2022/03/02 09:54:39;;;;;;;12.43;6.37;;;7.90;99.90;;;;;;5015213;28;20511;-71
2022/03/02 09:57:08;;;;;;;24.87;6.47;;;8.00;99.90;;;;;;5019096;28;20249;-71
2022/03/02 09:59:37;;;;;;;10.47;5.80;;;8.20;99.90;;;;;;5019693;28;20206;-70
2022/03/02 10:02:07;;;;;;;14.13;6.13;;;8.30;99.90;;;;;;5017902;28;20229;-70
2022/03/02 10:04:35;;;;;;;12.03;5.73;;;8.30;99.90;;;;;;5019507;28;20571;-70
2022/03/02 10:10:04;;;;;;;11.57;6.03;;;8.30;99.90;;;;;;5021428;28;20668;-70
2022/03/02 10:12:32;;;;;;;9.13;5.37;;;8.30;99.90;;;;;;5019277;28;20201;-70
2022/03/02 10:14:59;;;;;;;12.47;7.00;;;8.40;99.90;;;;;;5022432;28;20234;-70
2022/03/02 10:17:32;;;;;;;10.90;6.63;;;8.30;99.90;;;;;;5020348;28;20199;-70
2022/03/02 10:20:07;;;;;;;12.00;6.40;;;8.40;99.90;;;;;;5021152;28;20205;-70
2022/03/02 10:22:40;;;;;;;10.57;5.70;;;8.40;99.90;;;;;;5017522;28;20212;-70
2022/03/02 10:25:14;;;;;;;10.33;6.17;;;8.30;99.90;;;;;;5019714;28;20247;-66
2022/03/02 10:27:58;;;;;;;11.53;6.23;;;8.20;99.90;;;;;;5020599;28;20193;-67
2022/03/02 10:30:39;;;;;;;15.30;5.83;;;8.20;99.90;;;;;;5016132;28;20222;-66
2022/03/02 10:33:18;;;;;;;10.47;5.93;;;8.30;99.90;;;;;;5021027;28;20213;-66
2022/03/02 10:36:00;;;;;;;11.00;6.10;;;8.30;99.90;;;;;;5020696;28;20326;-66
2022/03/02 10:38:35;;;;;;;9.07;5.87;;;8.20;99.90;;;;;;5021879;28;20206;-67
2022/03/02 10:41:04;;;;;;;11.93;6.33;;;8.20;99.90;;;;;;5020237;28;20219;-66
2022/03/02 10:43:57;;;;;;;13.10;6.30;;;8.10;99.90;;;;;;5022266;28;20202;-67
2022/03/02 10:46:25;;;;;;;11.80;6.67;;;8.20;99.90;;;;;;5020763;28;20222;-67
2022/03/02 10:49:04;;;;;;;12.00;6.70;;;8.30;99.90;;;;;;5022509;28;20208;-67
2022/03/02 10:51:32;;;;;;;11.50;6.77;;;8.50;99.90;;;;;;5019986;28;20202;-67
2022/03/02 10:54:02;;;;;;;11.27;6.13;;;8.50;99.90;;;;;;5020657;28;20206;-67
2022/03/02 10:56:35;;;;;;;10.17;6.10;;;8.50;99.90;;;;;;5019850;28;20221;-67
2022/03/02 10:59:03;;;;;;;15.23;6.47;;;8.30;99.90;;;;;;5019465;28;20200;-70
2022/03/02 11:01:29;;;;;;;16.03;6.70;;;8.30;99.90;;;;;;5020872;28;20211;-72
2022/03/02 11:03:56;;;;;;;10.97;6.30;;;8.20;99.90;;;;;;5018848;28;20671;-76
2022/03/02 11:06:24;;;;;;;13.07;7.20;;;8.20;99.90;;;;;;5023906;28;20224;-76
2022/03/02 11:08:54;;;;;;;11.53;6.47;;;8.10;99.90;;;;;;5024337;28;20672;-74
2022/03/02 11:11:25;;;;;;;12.47;6.23;;;7.90;99.90;;;;;;5020782;28;20709;-68
2022/03/02 11:13:54;;;;;;;12.27;6.57;;;7.70;99.90;;;;;;5021828;28;20206;-69
2022/03/02 11:16:22;;;;;;;12.80;6.27;;;7.30;99.90;;;;;;5025615;28;20234;-67
2022/03/02 11:18:51;;;;;;;11.63;6.40;;;7.10;99.90;;;;;;5025296;28;20207;-68
2022/03/02 11:21:28;;;;;;;12.93;6.87;;;7.10;99.90;;;;;;5020843;28;20246;-69
2022/03/02 11:24:01;;;;;;;15.53;6.63;;;7.40;99.90;;;;;;5024157;28;20550;-68
2022/03/02 11:26:30;;;;;;;13.07;6.53;;;7.50;99.90;;;;;;5025524;28;20695;-67
2022/03/02 11:28:59;;;;;;;9.87;6.33;;;7.70;99.90;;;;;;5020796;28;20207;-71
2022/03/02 11:31:30;;;;;;;11.73;6.60;;;7.90;99.90;;;;;;5021128;28;20196;-69
2022/03/02 11:34:09;;;;;;;14.50;6.30;;;7.90;99.90;;;;;;5024190;28;20215;-67
2022/03/02 11:36:38;;;;;;;10.97;6.77;;;7.90;99.90;;;;;;5025140;28;20224;-68
2022/03/02 11:39:08;;;;;;;13.13;6.87;;;8.00;99.90;;;;;;5024443;28;20821;-68
2022/03/02 11:41:37;;;;;;;12.83;6.47;;;8.20;99.90;;;;;;5025300;28;20228;-68
2022/03/02 11:44:25;;;;;;;14.33;6.90;;;8.30;99.90;;;;;;5026850;28;20235;-68
2022/03/02 11:46:52;;;;;;;16.00;7.07;;;8.40;99.90;;;;;;5025212;28;20307;-70
2022/03/02 11:49:19;;;;;;;12.20;7.17;;;8.50;99.90;;;;;;5024697;28;20202;-68
2022/03/02 11:52:06;;;;;;;11.90;7.00;;;8.60;99.90;;;;;;5025080;28;20210;-68
2022/03/02 11:54:47;;;;;;;14.30;7.13;;;8.70;99.90;;;;;;5025832;28;20198;-67
2022/03/02 11:57:16;;;;;;;9.90;6.30;;;8.90;99.90;;;;;;5021333;28;20206;-71
2022/03/02 11:59:43;;;;;;;10.83;6.50;;;9.00;99.90;;;;;;5022548;28;20195;-71
2022/03/02 12:02:14;;;;;;;12.77;7.27;;;9.10;99.90;;;;;;5022158;28;20255;-72
2022/03/02 12:05:04;;;;;;;18.43;7.03;;;9.20;99.90;;;;;;5020151;28;20249;-74
2022/03/02 12:07:51;;;;;;;13.50;6.83;;;9.10;99.90;;;;;;5023869;28;20199;-71
2022/03/02 12:10:27;;;;;;;13.30;7.13;;;9.10;99.90;;;;;;5022460;28;20207;-72
2022/03/02 12:12:55;;;;;;;10.97;7.00;;;9.20;99.90;;;;;;5023944;28;20199;-70
2022/03/02 12:15:45;;;;;;;13.03;7.17;;;9.30;99.90;;;;;;5020982;28;20240;-68
2022/03/02 12:18:13;;;;;;;10.70;6.77;;;9.40;99.90;;;;;;5023736;28;20540;-67
2022/03/02 12:20:47;;;;;;;11.13;6.83;;;9.50;99.90;;;;;;5024458;28;20207;-67
2022/03/02 12:23:30;;;;;;;14.97;7.30;;;9.50;99.90;;;;;;5023355;28;20198;-66
2022/03/02 12:26:00;;;;;;;11.60;6.83;;;9.50;99.90;;;;;;5024075;28;20710;-66
2022/03/02 12:28:27;;;;;;;12.50;7.10;;;9.60;99.90;;;;;;5023169;28;20555;-66
2022/03/02 12:30:54;;;;;;;14.63;7.30;;;9.30;99.90;;;;;;5023450;28;20194;-66
2022/03/02 12:33:22;;;;;;;14.60;7.90;;;9.30;99.90;;;;;;5022318;28;20206;-66
2022/03/02 12:35:50;;;;;;;13.53;7.43;;;9.30;99.90;;;;;;5023694;28;20224;-67
2022/03/02 12:38:17;;;;;;;18.50;7.60;;;9.40;99.90;;;;;;5021594;28;20194;-69
2022/03/02 12:40:45;;;;;;;13.60;7.70;;;9.50;99.90;;;;;;5022922;28;20690;-67
2022/03/02 12:43:16;;;;;;;13.57;6.83;;;9.60;99.90;;;;;;5023526;28;20207;-66
2022/03/02 12:45:51;;;;;;;10.40;6.73;;;9.70;99.90;;;;;;5021694;28;20219;-66
2022/03/02 12:48:19;;;;;;;11.97;7.43;;;9.60;99.90;;;;;;5022429;28;20269;-66
2022/03/02 12:50:47;;;;;;;13.47;7.80;;;9.60;99.90;;;;;;5023872;28;20208;-66
2022/03/02 12:53:15;;;;;;;12.17;7.30;;;9.70;99.90;;;;;;5020625;28;20268;-66
2022/03/02 12:55:48;;;;;;;11.57;7.37;;;9.80;99.90;;;;;;5020308;28;20675;-69
2022/03/02 12:58:15;;;;;;;19.07;7.80;;;9.90;99.90;;;;;;5022070;28;20577;-70
2022/03/02 13:00:42;;;;;;;14.87;7.73;;;9.90;99.90;;;;;;5021568;28;20622;-70